Tiempo atmosférico en la estación meteorológica de Salamanca Aeropuerto, Salamanca (790 m.)



Fecha
DESCASC
Temp. máxima en grados centígrados (hora)
DESCASC
Temp. mínima en grados centígrados (hora)
DESCASC
Temp. media en grados centígrados
DESCASC
Racha de viento máxima en m/sg (hora)
DESCASC
Velocidad máxima media en intervalos de 10 minutos(hora)
DESCASC
Precipitaciones diarias en mm
DESCASC
Precipitaciones de 00:00 a 06:00 en mm
DESCASC
Precipitaciones de 06:00 a 12:00 en mm
DESCASC
Precipitaciones de 12:00 a 18:00 en mm
DESCASC
Precipitaciones de 18:00 a 24:00 en mm
DESCASC
28-02-2021 14.4 (16:50) -2.4 (07:20) 6 7.22 (15:00) 4.44 (15:20) 0 0 0 0 0
27-02-2021 15.4 (16:50) 1.3 (05:50) 8.3 8.89 (14:10) 6.39 (15:20) 0 0 0 0 0
26-02-2021 16 (15:10) 5.3 (08:00) 10.7 9.72 (10:10) 7.78 (11:40) 0 0 0 0 0
25-02-2021 14.7 (15:50) 2.6 (00:00) 8.6 8.33 (23:50) 5.83 (17:20) 0 0 0 0 0
24-02-2021 17.8 (14:50) -2.2 (-00:0) 7.8 8.89 (15:10) 6.11 (16:00) 0 0 0 0 0
23-02-2021 16.1 (18:10) -2.8 (-00:0) 6.7 7.22 (15:50) 3.89 (15:00) 0 0 0 0 0
22-02-2021 11.1 (17:10) 0.3 (00:00) 5.7 8.89 (03:20) 6.67 (03:30) 0 0 0 0 0
21-02-2021 13.1 (05:00) 3.3 (00:00) 8.2 20.56 (05:20) 13.89 (05:20) 11.3 0 0.6 5.4 5.3
20-02-2021 14.9 (16:00) 4.3 (00:00) 9.6 16.39 (16:00) 11.11 (16:00) 0 0 0 0 0
19-02-2021 17 (14:00) 4.3 (00:00) 10.7 13.89 (12:40) 10.83 (14:30) 0 0 0 0 0
18-02-2021 14.8 (15:10) 6.7 (00:00) 10.8 15 (13:30) 11.39 (13:30) 0 0 0 0 0
17-02-2021 15.4 (15:20) 6.1 (00:00) 10.7 10.83 (13:10) 7.78 (14:40) 0 0 0 0 0
16-02-2021 14.9 (14:50) 5.8 (00:00) 10.3 11.39 (14:10) 8.61 (13:10) 0 0 0 0 0
15-02-2021 19.1 (16:20) 0.2 (00:00) 9.7 10.28 (23:40) 7.5 (23:50) 0 0 0 0 0
14-02-2021 18.4 (16:00) -0.3 (00:00) 9 8.89 (16:00) 4.72 (17:40) 0 0 0 0 0
13-02-2021 14.8 (15:30) 1 (00:00) 7.9 9.17 (13:30) 5 (16:10) 0 0 0 0 0
12-02-2021 13.1 (15:30) 4.1 (00:00) 8.6 12.78 (10:30) 9.44 (10:40) 3.8 3.8 0 0 0
11-02-2021 15.4 (14:50) 6.8 (00:00) 11.1 14.44 (21:10) 10.28 (21:20) 0 0 0 0 0
10-02-2021 12.5 (16:40) 4.9 (00:00) 8.7 20.56 (02:20) 13.89 (02:20) 6 6 0 0 0
09-02-2021 8.9 (16:40) 3.1 (00:00) 6 21.11 (12:30) 15.56 (12:30) 14 0.6 3 7.8 2.6
08-02-2021 8.4 (13:50) 4.4 (00:00) 6.4 16.94 (14:00) 12.5 (14:20) 9.1 6.2 0.1 2.8 0
07-02-2021 7.5 (12:00) 1.9 (00:00) 4.7 14.44 (23:59) 10 (23:59) 1.6 0 0 1.6 0
06-02-2021 9.8 (12:50) 5.1 (00:00) 7.5 12.5 (17:00) 8.89 (17:20) 5.1 2.9 2.2 0 0
05-02-2021 12.3 (15:20) 5.2 (00:00) 8.8 11.39 (09:10) 7.78 (09:10) 9.2 1.6 1.5 5.9 0.2
04-02-2021 8.3 (00:00) 5.4 (00:00) 6.9 8.33 (20:30) 6.67 (20:40) 14.3 0 6.8 4.9 2.6
03-02-2021 12.5 (13:00) 8.1 (00:00) 10.3 18.06 (00:20) 13.89 (00:30) 5.7 0 0 3.7 2
02-02-2021 14.4 (12:30) 7.2 (06:10) 10.8 18.61 (23:59) 12.78 (23:59) 0 0 0 0 0
01-02-2021 13.9 (15:30) 7 (00:00) 10.4 15 (01:30) 11.11 (16:10) 0 0 0 0 0
31-01-2021 14.2 (16:10) 5.7 (00:00) 9.9 18.06 (18:00) 13.06 (17:20) 0.6 0 0.6 0 0
30-01-2021 10 (14:10) 6 (00:00) 8 18.61 (11:30) 14.17 (11:50) 4.9 4.4 0.1 0 0.4

Gráficas

Temp. máximas Temp. mínimas Temp. medias Precipitaciones Rachas de viento máximas Velocidades máximas media en intervalos de 10 minutos

Datos horarios

Fecha y hora oficial Temperatura (ºC) Velocidad del viento (km/h) Dirección del viento Racha (km/h) Dirección de racha Precipitación (mm) Presión (hPa) Tendencia (hPa) Humedad (%)
2021-02-28 23:00:00 6.7 13 Sur 21 Sur 0 926 -- 80
2021-02-28 22:00:00 7 12 Sudoeste 13 Sudoeste 0 925.5 -- 79
2021-02-28 21:00:00 6.6 7 Sur 9 Sur 0 925.3 -- 80
2021-02-28 20:00:00 8.5 8 Este 18 Este 0 925 -- 72
2021-02-28 19:00:00 11 15 Este 18 Este 0 924.9 -- 64
2021-02-28 18:00:00 12.7 9 Nordeste 15 Norte 0 924.5 -- 57
2021-02-28 17:00:00 14.2 11 Noroeste 24 Noroeste 0 924.5 -- 50
2021-02-28 16:00:00 13.4 10 Noroeste 24 Norte 0 924.9 -- 52
2021-02-28 15:00:00 12.7 14 Norte 26 Norte 0 925.3 -- 55
2021-02-28 14:00:00 12.1 8 Noroeste 17 Norte 0 925.9 -- 55
2021-02-28 13:00:00 10.1 6 Oeste 15 Nordeste 0 926.6 -- 62
2021-02-28 12:00:00 8.2 3 Oeste 9 Noroeste 0 927.4 -- 66
2021-02-28 11:00:00 5.8 3 Este 15 Este 0 927.7 -- 73
2021-02-28 10:00:00 3.3 4 Este 11 Sudeste 0 928 -- 82
2021-02-28 09:00:00 0.3 8 Este 11 Este 0 927.7 -- 93
2021-02-28 08:00:00 -2.1 5 Este 11 Oeste 0 927.7 -- 93
2021-02-28 07:00:00 -1.5 0 Calma 8 Noroeste 0 927.9 -- 91
2021-02-28 06:00:00 -1.3 0 Calma 13 Este 0 928.1 -- 88
2021-02-28 05:00:00 0.5 4 Este 13 Este 0 928.2 -- 84
2021-02-28 04:00:00 0.9 0 Calma 13 Este 0 928.6 -- 80
2021-02-28 03:00:00 2 4 Este 15 Nordeste 0 929.1 -- 79
2021-02-28 02:00:00 2.7 9 Nordeste 15 Nordeste 0 929.5 -- 77
2021-02-28 01:00:00 4.4 12 Nordeste 24 Nordeste 0 929.7 -- 71
2021-02-28 00:00:00 5.9 17 Este 24 Nordeste 0 930 -- 66
2021-02-27 23:00:00 6.8 14 Este 26 Este 0 930.3 -- 71
2021-02-27 22:00:00 7.9 15 Este 24 Este 0 930.3 -- 73
2021-02-27 21:00:00 8.6 14 Este 21 Este 0 930.1 -- 75
2021-02-27 20:00:00 10.1 14 Este 21 Nordeste 0 930.3 -- 70
2021-02-27 19:00:00 11.8 9 Nordeste 22 Este 0 930.4 -- 64
2021-02-27 18:00:00 14.5 15 Este 24 Este 0 930.5 -- 54
2021-02-27 17:00:00 15.1 16 Nordeste 30 Este 0 930.8 -- 51
2021-02-27 16:00:00 14.8 22 Nordeste 32 Este 0 931.5 -- 54
2021-02-27 15:00:00 14.4 21 Nordeste 32 Nordeste 0 932.1 -- 57
2021-02-27 14:00:00 13 19 Nordeste 30 Nordeste 0 932.9 -- 64
2021-02-27 13:00:00 10.9 14 Este 22 Este 0 933.9 -- 74
2021-02-27 12:00:00 8.1 14 Este 24 Este 0 934.6 -- 88
2021-02-27 11:00:00 6.1 15 Este 21 Este 0 934.9 -- 94
2021-02-27 10:00:00 5.1 13 Este 17 Este 0 934.8 -- 98
2021-02-27 09:00:00 3.8 0 Calma 9 Este 0 934.7 -- 99
2021-02-27 08:00:00 2.8 0 Calma 11 Este 0 934.2 -- 98
2021-02-27 07:00:00 2.6 0 Calma 9 Norte 0 934.1 -- 99
2021-02-27 06:00:00 1.4 8 Norte 11 Nordeste 0 934 -- 95
2021-02-27 05:00:00 2.2 8 Sudoeste 9 Sudoeste 0 934 -- 97
2021-02-27 04:00:00 4.4 4 Sur 9 Sudeste 0 934 -- 94
2021-02-27 03:00:00 5.1 0 Calma 11 Este 0 934.4 -- 91
2021-02-27 02:00:00 5.6 0 Calma 9 Norte 0 934.7 -- 90
2021-02-27 01:00:00 6.5 9 Nordeste 18 Este 0 934.7 -- 86
2021-02-27 00:00:00 6.8 9 Este 17 Este 0 935 -- 87
2021-02-26 23:00:00 6.8 4 Sudeste 8 Sudeste 0 935.2 -- 85
2021-02-26 22:00:00 7.6 0 Calma 9 Este 0 934.9 -- 82
2021-02-26 21:00:00 9 0 Calma 11 Nordeste 0 934.7 -- 76
2021-02-26 20:00:00 10.1 10 Nordeste 15 Nordeste 0 934.6 -- 73
2021-02-26 19:00:00 11.4 11 Nordeste 22 Nordeste 0 934.4 -- 69
2021-02-26 18:00:00 13.7 17 Nordeste 28 Este 0 934.2 -- 60
2021-02-26 17:00:00 14.4 20 Nordeste 28 Nordeste 0 934.1 -- 60
2021-02-26 16:00:00 15.2 21 Nordeste 35 Este 0 934.1 -- 58
2021-02-26 15:00:00 15.5 17 Este 28 Este 0 934.3 -- 49
2021-02-26 14:00:00 15.2 17 Este 35 Este 0 934.8 -- 53
2021-02-26 13:00:00 13.9 19 Este 33 Este 0 935.5 -- 58
2021-02-26 12:00:00 11.8 24 Este 35 Este 0 935.5 -- 69
2021-02-26 11:00:00 10.2 24 Este 35 Este 0 935.5 -- 72
2021-02-26 10:00:00 8.7 22 Nordeste 30 Este 0 935.3 -- 76
2021-02-26 09:00:00 7.5 21 Este 28 Este 0 934.9 -- 81
2021-02-26 08:00:00 5.5 14 Nordeste 22 Nordeste 0 934.3 -- 90
2021-02-26 07:00:00 7 17 Este 28 Este 0 934.2 -- 84
2021-02-26 06:00:00 7.2 20 Este 28 Este 0 933.9 -- 85
2021-02-26 05:00:00 7.1 22 Este 30 Este 0 934 -- 87
2021-02-26 04:00:00 7.7 16 Este 22 Este 0 934.3 -- 85
2021-02-26 03:00:00 8.9 14 Este 18 Este 0 934.8 -- 75
2021-02-26 02:00:00 9.2 9 Este 26 Este 0 935.1 -- 75
2021-02-26 01:00:00 9.1 13 Este 18 Este 0 935.4 -- 76
2021-02-26 00:00:00 9.4 13 Este 30 Este 0 935.3 -- 72
2021-02-25 23:00:00 8.5 12 Este 17 Este 0 935 -- 77
2021-02-25 22:00:00 8.1 10 Este 15 Este 0 934.6 -- 83
2021-02-25 21:00:00 9.5 12 Este 24 Este 0 934.2 -- 80
2021-02-25 20:00:00 10.7 18 Este 26 Este 0 933.9 -- 76
2021-02-25 19:00:00 11.5 12 Nordeste 24 Este 0 933.5 -- 68
2021-02-25 18:00:00 12.4 18 Nordeste 26 Este 0 933.3 -- 65
2021-02-25 17:00:00 13.7 11 Nordeste 21 Nordeste 0 933.2 -- 58
2021-02-25 16:00:00 14.4 8 Norte 15 Norte 0 933.1 -- 54
2021-02-25 15:00:00 13.8 5 Norte 13 Norte 0 933.2 -- 57
2021-02-25 14:00:00 13.6 4 Nordeste 13 Norte 0 933.7 -- 59
2021-02-25 13:00:00 12.6 4 Sur 9 Sudeste 0 934.1 -- 63
2021-02-25 12:00:00 11 5 Oeste 11 Sur 0 934.3 -- 74
2021-02-25 11:00:00 9.5 7 Sur 15 Sudeste 0 934.1 -- 81
2021-02-25 10:00:00 7.5 9 Este 13 Este 0 933.6 -- 88
2021-02-25 09:00:00 4.9 8 Sudeste 13 Sur 0 933.1 -- 92
2021-02-25 08:00:00 4.8 6 Sudeste 15 Sur 0 932.8 -- 93
2021-02-25 07:00:00 4.5 0 Calma 13 Oeste 0 932.8 -- 93
2021-02-25 06:00:00 3.4 5 Nordeste 9 Norte 0 932.3 -- 93
2021-02-25 05:00:00 3.2 0 Calma -- -- 0 932.3 -- 93
2021-02-25 04:00:00 3.7 0 Calma 9 Este 0 932.7 -- 90
2021-02-25 03:00:00 4.6 9 Este 17 Sudeste 0 933.1 -- 89
2021-02-25 02:00:00 3.8 5 Sudeste 9 Sudeste 0 933.6 -- 91
2021-02-25 01:00:00 5.1 7 Nordeste 9 Este 0 933.9 -- 85
2021-02-25 00:00:00 5.3 0 Calma 8 Este 0 934.3 -- 84
2021-02-24 23:00:00 5.8 9 Este 15 Este 0 934.4 -- 85
2021-02-24 22:00:00 7 3 Este 11 Nordeste 0 934.2 -- 81
2021-02-24 21:00:00 7.3 10 Sudeste 15 Oeste 0 934.2 -- 80
2021-02-24 20:00:00 9 13 Oeste 18 Oeste 0 934 -- 72
2021-02-24 19:00:00 11.9 12 Oeste 18 Oeste 0 933.8 -- 62
2021-02-24 18:00:00 16.2 12 Oeste 24 Oeste 0 933.3 -- 45
2021-02-24 17:00:00 17 17 Oeste 30 Oeste 0 933.6 -- 40
2021-02-24 16:00:00 17.2 22 Oeste 32 Oeste 0 934.1 -- 41
2021-02-24 15:00:00 17.7 19 Oeste 30 Oeste 0 934.3 -- 39
2021-02-24 14:00:00 16.3 14 Sudoeste 22 Sudoeste 0 934.6 -- 43
2021-02-24 13:00:00 15 0 Calma 11 Sudeste 0 935.8 -- 43
2021-02-24 12:00:00 11.7 5 Oeste 13 Noroeste 0 936.5 -- 57
2021-02-24 11:00:00 8.6 0 Calma 8 Sudeste 0 937 -- 69
2021-02-24 10:00:00 4.4 0 Calma 5 Sudeste 0 937.1 -- 85
2021-02-24 09:00:00 0 6 Sudoeste 11 Sur 0 937.2 -- 94
2021-02-24 08:00:00 -2 0 Calma 9 Sur 0 937 -- 95
2021-02-24 07:00:00 -1.4 0 Calma -- -- -- 937.1 -0.9 96
2021-02-24 06:00:00 -0.5 0 Calma -- -- 0 937.4 -1.1 96
2021-02-24 05:00:00 -0.7 0 Calma 5 Este 0 937.7 -- 96
2021-02-24 04:00:00 -0.3 9 Sudeste 11 Sudeste 0 938 -- 92
2021-02-24 03:00:00 0.1 9 Sudeste 11 Sudeste 0 938.5 -- 94
2021-02-24 02:00:00 1 0 Calma 8 Este 0 938.3 -0.5 94
2021-02-24 01:00:00 2 0 Calma 8 Este 0 938.4 -- 88
2021-02-24 00:00:00 2.6 2 Sudeste 11 Sudeste 0 938.6 -- 86
2021-02-23 23:00:00 3.2 8 Sudeste 13 Sudeste 0 938.8 -- 82
2021-02-23 22:00:00 4.7 7 Sudeste 9 Sur 0 938.8 -- 81
2021-02-23 21:00:00 7.5 2 Sudoeste 5 Sudoeste 0 938.4 1.2 67
2021-02-23 20:00:00 9.3 2 Oeste 15 Oeste 0 937.9 -- 59
2021-02-23 19:00:00 14.1 0 Calma 5 Sudoeste 0 937.4 -- 31
2021-02-23 18:00:00 15.1 0 Calma 13 Sur 0 937.2 -- 29
2021-02-23 17:00:00 15.2 7 Sur 18 Sur 0 936.8 -- 27
2021-02-23 16:00:00 15.1 7 Sur 26 Sur 0 937 -- 24
2021-02-23 15:00:00 14.6 14 Sur 24 Sur 0 937.2 -- 26
2021-02-23 14:00:00 13.4 7 Sur 18 Sur 0 937.6 -- 31
2021-02-23 13:00:00 12.4 9 Sur 21 Sudoeste 0 938.3 -- 37
2021-02-23 12:00:00 10.5 6 Sudeste 15 Sudeste 0 938.1 -- 51
2021-02-23 11:00:00 6.5 8 Sudeste 15 Sudeste 0 937.9 -- 67
2021-02-23 10:00:00 3.3 7 Sur 11 Sur 0 937.6 -- 75
2021-02-23 09:00:00 -0.7 8 Este 11 Este 0 936.8 -- 91
2021-02-23 08:00:00 -2.6 6 Este 9 Este 0 936.2 -- 91
2021-02-23 07:00:00 -2.1 8 Este 11 Este 0 935.6 -- 90
2021-02-23 06:00:00 -2 7 Este 9 Este 0 935.2 -- 92
2021-02-23 05:00:00 -1.9 8 Este 13 Sudeste 0 934.7 -- 89
2021-02-23 04:00:00 -1.7 11 Este 15 Este 0 934.5 -- 91
2021-02-23 03:00:00 -1.1 5 Sudeste 9 Este 0 934.4 -- 93
2021-02-23 02:00:00 -0.7 5 Este 9 Sudeste 0 934.2 -- 91
2021-02-23 01:00:00 -0.2 8 Sudeste 9 Sudeste 0 933.8 -- 91
2021-02-23 00:00:00 0.5 8 Este 9 Este 0 933.4 -- 87
2021-02-22 23:00:00 1.7 5 Sudeste -- -- 0 933 -- 82
2021-02-22 22:00:00 2.6 5 Sur -- -- 0 931.9 -- 86
2021-02-22 21:00:00 3.5 7 Sudeste 11 Sur 0 931.2 -- 78
2021-02-22 20:00:00 6.5 4 Sudeste 5 Sudeste 0 930.6 -- 67
2021-02-22 19:00:00 10.6 0 Calma 13 Oeste 0 930 -- 42
2021-02-22 18:00:00 10.9 6 Oeste 13 Oeste 0 929.1 -- 41
2021-02-22 17:00:00 10.8 7 Oeste 21 Oeste 0 928.6 -- 47
2021-02-22 16:00:00 10.1 9 Oeste 24 Noroeste 0 928.2 -- 47
2021-02-22 15:00:00 9.6 12 Oeste 21 Oeste 0 927.8 -- 48
2021-02-22 14:00:00 8.5 8 Oeste 18 Sudoeste 0 927.8 -- 56
2021-02-22 13:00:00 7.4 9 Sudoeste 17 Sudoeste 0 928.1 -- 62
2021-02-22 12:00:00 5.4 8 Noroeste 22 Oeste 0 928 -- 72
2021-02-22 11:00:00 4.7 13 Oeste 21 Noroeste 0 927.3 -- 81
2021-02-22 10:00:00 2.9 12 Oeste 17 Oeste 0 926.8 -- 90
2021-02-22 09:00:00 0.6 9 Oeste 18 Oeste 0 925.9 -- 95
2021-02-22 08:00:00 0.5 13 Oeste 22 Oeste 0 924.7 -- 95
2021-02-22 07:00:00 0.8 17 Oeste 24 Oeste 0 924 1.9 95
2021-02-22 06:00:00 1.2 17 Oeste 22 Oeste 0 923.1 -- 94
2021-02-22 05:00:00 1.7 14 Oeste 22 Oeste 0 922.5 -- 93
2021-02-22 04:00:00 2.8 17 Oeste 32 Oeste 0 922.1 -- 92
2021-02-22 03:00:00 3.2 18 Oeste 28 Oeste 0 921.8 -- 91
2021-02-22 02:00:00 3.4 16 Oeste 24 Oeste 0 920.9 -- 89
2021-02-22 01:00:00 3.9 18 Oeste 26 Oeste 0 920.3 -- 87
2021-02-22 00:00:00 4.4 15 Oeste 18 Oeste 0.8 919.8 -- 92
2021-02-21 23:00:00 4.2 10 Norte 24 Noroeste 0.6 919.2 -- 93
2021-02-21 22:00:00 4.1 20 Noroeste 46 Noroeste 1.3 918.4 2.5 89
2021-02-21 21:00:00 4.8 21 Oeste 37 Noroeste 0.9 917.5 -- 89
2021-02-21 20:00:00 5 12 Sudoeste 15 Sudoeste 0.7 916.8 -- 94
2021-02-21 19:00:00 4.7 10 Oeste 17 Oeste 1 915.9 -- 92
2021-02-21 18:00:00 4.5 10 Oeste 17 Oeste 1.3 915.1 -- 94
2021-02-21 17:00:00 3.4 12 Sudoeste 30 Oeste 1.9 914.7 -- 93
2021-02-21 16:00:00 4.4 15 Oeste 21 Oeste 0.9 914.3 -- 93
2021-02-21 15:00:00 4.3 12 Oeste 21 Oeste 0.5 913.9 -- 91
2021-02-21 14:00:00 4.2 14 Oeste 28 Oeste 0.8 913.9 -- 92
2021-02-21 13:00:00 4.6 23 Oeste 35 Oeste 0 914.5 -- 90
2021-02-21 12:00:00 5.2 24 Oeste 52 Oeste 0.6 914.1 -- 90
2021-02-21 11:00:00 9.2 13 Sudoeste 28 Oeste 0 913.3 -- 81
2021-02-21 10:00:00 9.4 18 Sur 32 Sur 0 912.5 -- 74
2021-02-21 09:00:00 9.3 22 Sur 42 Sur 0 912.5 -- 69
2021-02-21 08:00:00 10 23 Sur 46 Sur 0 912.2 -- 63
2021-02-21 07:00:00 10.8 31 Sur 67 Sur 0 912.6 -- 52
2021-02-21 06:00:00 12 41 Sur 74 Sur 0 912.6 -- 38
2021-02-21 05:00:00 12.9 46 Sur 61 Sur 0 912.3 -- 31
2021-02-21 04:00:00 10.5 14 Sur 35 Sur 0 912.3 -- 37
2021-02-21 03:00:00 11.8 24 Sur 35 Sudeste 0 912.8 -- 34
2021-02-21 02:00:00 11.2 5 Este 24 Sudoeste 0 914.1 -- 36
2021-02-21 01:00:00 12.6 13 Sur 45 Sur 0 914.8 -- 28
2021-02-21 00:00:00 12.4 30 Sur 50 Sur 0 915.5 -- 31
2021-02-20 23:00:00 8.2 9 Sudeste 13 Sudeste 0 915.5 -- 46
2021-02-20 22:00:00 9.3 7 Este 26 Sur 0 915.4 -- 42
2021-02-20 21:00:00 10.3 17 Sur 26 Sur 0 915.7 -- 42
2021-02-20 20:00:00 11.7 22 Sur 33 Sur 0 916.3 -- 37
2021-02-20 19:00:00 12.2 25 Sur 45 Sur 0 916.5 -- 38
2021-02-20 18:00:00 13 30 Sur 42 Sur 0 916.5 -- 39
2021-02-20 17:00:00 13.4 28 Sur 50 Sudoeste 0 916.6 -- 39
2021-02-20 16:00:00 14.9 40 Sur 59 Sudoeste 0 916.8 -- 36
2021-02-20 15:00:00 14.2 30 Sudoeste 46 Sudoeste 0 916.7 -- 37
2021-02-20 14:00:00 14.1 27 Sudoeste 42 Sudoeste 0 917.9 -- 39
2021-02-20 13:00:00 13.5 24 Sudoeste 33 Sudoeste 0 919 -- 41
2021-02-20 12:00:00 12.1 8 Sudoeste 28 Sudoeste 0 919.2 -- 53
2021-02-20 11:00:00 10 21 Sudoeste 35 Sudoeste 0 919.5 -- 63
2021-02-20 10:00:00 9.3 24 Sudoeste 45 Sudoeste 0 919.6 -- 60
2021-02-20 09:00:00 8 23 Sudoeste 30 Sudoeste 0 919.4 0.3 57
2021-02-20 08:00:00 5 3 Nordeste 21 Sur 0 918.8 -- 74
2021-02-20 07:00:00 7.4 21 Sudoeste 30 Sudoeste 0 918.8 -- 68
2021-02-20 06:00:00 7 5 Nordeste 17 Oeste 0 919.1 -- 67
2021-02-20 05:00:00 7.7 8 Sudoeste 15 Sudoeste 0 919.6 -- 61
2021-02-20 04:00:00 8.3 12 Oeste 28 Sur 0 919.8 -1.5 63
2021-02-20 03:00:00 6.2 15 Sur 22 Sur 0 920.2 -- 81
2021-02-20 02:00:00 4.8 13 Sudoeste 24 Sudoeste 0 921.1 -- 84
2021-02-20 01:00:00 6.4 21 Sudoeste 26 Sudoeste 0 921.3 -- 77
2021-02-20 00:00:00 4.9 13 Sudoeste 17 Sudoeste 0 922.5 -- 73
2021-02-19 23:00:00 5.8 5 Noroeste 21 Sudoeste 0 922.7 -0.2 73
2021-02-19 22:00:00 7.3 15 Sudoeste 22 Sudoeste 0 922.7 -- 68
2021-02-19 21:00:00 8.3 16 Sudoeste 37 Sudoeste 0 922.8 -- 63
2021-02-19 20:00:00 8.9 19 Sudoeste 37 Sudoeste 0 922.9 -- 67
2021-02-19 19:00:00 11.3 24 Sudoeste 39 Sudoeste 0 923.2 -- 56
2021-02-19 18:00:00 12.1 22 Sudoeste 42 Sudoeste 0 923.6 -- 57
2021-02-19 17:00:00 12.8 30 Sudoeste 48 Sudoeste 0 923.7 -0.3 51
2021-02-19 16:00:00 14.1 33 Sudoeste 48 Oeste 0 923.7 -- 43
2021-02-19 15:00:00 14.7 38 Oeste 50 Oeste 0 923.6 -- 39
2021-02-19 14:00:00 16.5 36 Sudoeste 48 Sudoeste 0 924 -- 38
2021-02-19 13:00:00 15.2 28 Sur 50 Sudoeste 0 924.6 -- 43
2021-02-19 12:00:00 13.8 27 Sudoeste 45 Sudoeste 0 925 -- 50
2021-02-19 11:00:00 11 16 Sur 22 Sudoeste 0 925.7 -- 68
2021-02-19 10:00:00 9 8 Sur 18 Sur 0 925.9 -- 71
2021-02-19 09:00:00 5 8 Sudoeste 15 Oeste 0 925.9 -- 86
2021-02-19 08:00:00 4.9 5 Sudoeste 13 Sudoeste 0 925.7 -- 86
2021-02-19 07:00:00 4.7 10 Sudoeste 21 Sudoeste 0 925.6 -- 87
2021-02-19 06:00:00 6.7 21 Sur 30 Sur 0 925.1 -- 81
2021-02-19 05:00:00 7 16 Sudoeste 35 Sudoeste 0 925.3 -- 81
2021-02-19 04:00:00 7 19 Sur 28 Sudoeste 0 925.4 -- 81
2021-02-19 03:00:00 6.8 13 Sudoeste 22 Sudoeste 0 925.9 -- 83
2021-02-19 02:00:00 8 17 Sudoeste 26 Sudoeste 0 926.1 -- 79
2021-02-19 01:00:00 10.1 21 Sudoeste 32 Sudoeste 0 926.1 -- 69
2021-02-19 00:00:00 10.1 17 Sudoeste 28 Sudoeste 0 926.3 -- 69
2021-02-18 23:00:00 10.3 18 Sudoeste 32 Sudoeste 0 926.3 -- 72
2021-02-18 22:00:00 10 23 Sudoeste 30 Sudoeste 0 926.2 -- 73
2021-02-18 21:00:00 8.9 13 Sudoeste 32 Sudoeste 0 926.1 -- 78
2021-02-18 20:00:00 9.4 18 Sudoeste 37 Sudoeste 0 925.7 -- 74
2021-02-18 19:00:00 10.7 21 Sudoeste 42 Sudoeste 0 925.3 -- 68
2021-02-18 18:00:00 11.6 24 Sudoeste 45 Sudoeste 0 925.1 -- 64
2021-02-18 17:00:00 13 30 Sudoeste 46 Sudoeste 0 924.8 -- 55
2021-02-18 16:00:00 13.7 28 Sudoeste 46 Sudoeste 0 924.6 -- 56
2021-02-18 15:00:00 14.2 36 Sudoeste 52 Oeste 0 924.7 -- 52
2021-02-18 14:00:00 12.7 37 Sudoeste 54 Sudoeste 0 925.2 -- 55
2021-02-18 13:00:00 13.5 37 Sudoeste 52 Sudoeste 0 925.4 -- 54
2021-02-18 12:00:00 11.9 32 Sudoeste 50 Sudoeste 0 925.4 -- 61
2021-02-18 11:00:00 10.4 33 Sudoeste 46 Sudoeste 0 925.1 -- 69
2021-02-18 10:00:00 8.9 31 Sudoeste 45 Sudoeste 0 925.2 -- 79
2021-02-18 09:00:00 6.8 15 Sudoeste 37 Sur 0 924.5 -- 87
2021-02-18 08:00:00 7.1 25 Sur 42 Sur 0 924.1 -- 87
2021-02-18 07:00:00 7.5 32 Sur 42 Sur 0 923.7 -- 86
2021-02-18 06:00:00 7.5 26 Sur 37 Sur 0 924.1 -- 88
2021-02-18 05:00:00 8.1 30 Sur 41 Sur 0 924.3 -- 86
2021-02-18 04:00:00 8.7 33 Sur 50 Sudoeste 0 924.8 -- 86
2021-02-18 03:00:00 9.3 31 Sur 45 Sudoeste 0 924.9 -- 83
2021-02-18 02:00:00 9.2 24 Sudoeste 35 Sudoeste 0 925.2 -- 80
2021-02-18 01:00:00 9.4 29 Sudoeste 42 Sudoeste 0 925.3 -- 77
2021-02-18 00:00:00 9.4 22 Sur 33 Sudoeste 0 925.5 -- 81
2021-02-17 23:00:00 9.6 24 Sur 39 Sur 0 925.7 -- 81
2021-02-17 22:00:00 8.7 21 Sudoeste 26 Sudoeste 0 925.9 -- 84
2021-02-17 21:00:00 8.6 13 Sudoeste 24 Sudoeste 0 926.1 -- 80
2021-02-17 20:00:00 9.3 14 Sudoeste 24 Sudoeste 0 926.2 -- 78
2021-02-17 19:00:00 11.3 20 Sudoeste 35 Sudoeste 0 926.2 -- 64
2021-02-17 18:00:00 13.5 21 Sudoeste 30 Sudoeste 0 926.6 -- 61
2021-02-17 17:00:00 14.9 21 Sudoeste 28 Sudoeste 0 927.3 -- 61
2021-02-17 16:00:00 15.1 21 Oeste 33 Oeste 0 927.5 -- 59
2021-02-17 15:00:00 14.9 26 Sudoeste 39 Sudoeste 0 928.2 -- 60
2021-02-17 14:00:00 14 24 Sudoeste 39 Oeste 0 929 -- 65
2021-02-17 13:00:00 14.1 27 Sudoeste 37 Sudoeste 0 929.8 -- 65
2021-02-17 12:00:00 12.4 23 Sudoeste 32 Sudoeste 0 930.5 -- 73
2021-02-17 11:00:00 11.1 20 Sudoeste 26 Sudoeste 0 930.6 -- 80
2021-02-17 10:00:00 9.3 11 Sur 18 Sur 0 930.6 -- 89
2021-02-17 09:00:00 7.5 7 Sur 13 Sudeste 0 930.5 -- 93
2021-02-17 08:00:00 7.3 6 Sur 17 Sudoeste 0 930.4 -- 95
2021-02-17 07:00:00 6.4 0 Calma 2 Sudoeste 0 930.5 -- 93
2021-02-17 06:00:00 6.3 0 Calma 13 Oeste 0 931 -- 92
2021-02-17 05:00:00 7.1 3 Sur 8 Sur 0 931 -- 92
2021-02-17 04:00:00 7.8 4 Sudeste -- -- 0 931.5 -- 90
2021-02-17 03:00:00 8.5 9 Oeste 18 Sudoeste 0 931.8 -- 88
2021-02-17 02:00:00 8.9 8 Oeste 13 Oeste 0 932 -- 86
2021-02-17 01:00:00 9 3 Oeste 8 Oeste 0 932.3 -- 84
2021-02-17 00:00:00 8.7 10 Sudoeste 17 Sudoeste 0 932.6 -- 84
2021-02-16 23:00:00 9 13 Sudoeste 22 Sudoeste 0 932.7 -- 81
2021-02-16 22:00:00 9.6 14 Sudoeste 21 Sudoeste 0 932.6 -- 79
2021-02-16 21:00:00 9.5 16 Sudoeste 22 Sudoeste 0 932.6 -- 79
2021-02-16 20:00:00 10.2 18 Sudoeste 26 Sudoeste 0 932.5 -- 78
2021-02-16 19:00:00 10.7 18 Sudoeste 28 Sudoeste 0 932.2 -- 76
2021-02-16 18:00:00 11.6 21 Sudoeste 33 Sudoeste 0 932.1 -- 71
2021-02-16 17:00:00 12.5 28 Sudoeste 37 Sudoeste 0 932.3 -- 66
2021-02-16 16:00:00 13.3 25 Sudoeste 39 Sudoeste 0 932.2 -- 61
2021-02-16 15:00:00 14.1 24 Sudoeste 41 Sudoeste 0 932.5 -- 54
2021-02-16 14:00:00 13.4 29 Sudoeste 39 Sudoeste 0 932.8 -- 56
2021-02-16 13:00:00 12.4 28 Sudoeste 39 Sudoeste 0 933.4 -- 59
2021-02-16 12:00:00 11.2 18 Oeste 26 Oeste 0 933.7 -- 66
2021-02-16 11:00:00 9.6 14 Oeste 28 Oeste 0 933.5 -- 69
2021-02-16 10:00:00 10.5 16 Oeste 32 Oeste 0 932.7 -- 65
2021-02-16 09:00:00 8.3 19 Oeste 37 Sudoeste 0 931.7 -- 69
2021-02-16 08:00:00 8.1 24 Sudoeste 32 Sudoeste 0 931.3 -- 70
2021-02-16 07:00:00 6.5 0 Calma 28 Sudoeste 0 931.4 -- 72
2021-02-16 06:00:00 8.5 16 Sur 39 Sudoeste 0 931.4 -- 65
2021-02-16 05:00:00 8 20 Sur 35 Sudoeste 0 931.3 -- 72
2021-02-16 04:00:00 8 29 Sudoeste 35 Sudoeste 0 931.8 -- 77
2021-02-16 03:00:00 7.2 4 Este 21 Sur 0 932.3 -- 79
2021-02-16 02:00:00 6.5 4 Sur 15 Oeste 0 932.5 -- 80
2021-02-16 01:00:00 8.7 4 Noroeste 33 Sudoeste 0 933 -- 72
2021-02-16 00:00:00 9.5 23 Sudoeste 37 Sudoeste 0 933.2 -- 69
2021-02-15 23:00:00 8.8 10 Sudoeste 21 Sudoeste 0 933.5 -- 74
2021-02-15 22:00:00 6.6 8 Sudeste 13 Sur 0 933.5 -- 83
2021-02-15 21:00:00 9.8 6 Sudoeste 8 Sudoeste 0 933.7 -- 73
2021-02-15 20:00:00 9.6 0 Calma 17 Sudoeste 0 933.8 -- 71
2021-02-15 19:00:00 12.2 13 Sudoeste 18 Sudoeste 0 933.7 -- 64
2021-02-15 18:00:00 16.3 15 Sudoeste 21 Oeste 0 933.6 -- 53
2021-02-15 17:00:00 18.7 15 Oeste 22 Oeste 0 933.8 -- 39
2021-02-15 16:00:00 18.8 13 Oeste 18 Oeste 0 934 -- 35
2021-02-15 15:00:00 18.1 5 Sudoeste 15 Sudoeste 0 934.4 -- 38
2021-02-15 14:00:00 17 8 Sudoeste 15 Sudeste 0 935.1 -- 45
2021-02-15 13:00:00 15.5 9 Sur 18 Sur 0 936.1 -- 48
2021-02-15 12:00:00 13.1 11 Sur 17 Sur 0 936.8 -- 59
2021-02-15 11:00:00 10.2 10 Sur 15 Sur 0 936.9 -- 66
2021-02-15 10:00:00 5.2 5 Este 8 Sudeste 0 936.9 -- 84
2021-02-15 09:00:00 1.5 0 Calma 8 Sur 0 936.7 -- 91
2021-02-15 08:00:00 0.7 9 Sudeste 13 Sudeste 0 936 -- 94
2021-02-15 07:00:00 1.1 0 Calma 8 Este 0 935.9 -- 94
2021-02-15 06:00:00 1.1 4 Este 8 Sudeste 0 935.7 -- 94
2021-02-15 05:00:00 1.9 0 Calma 11 Sudeste 0 935.6 -- 93
2021-02-15 04:00:00 2.1 12 Sudeste 13 Sudeste 0 936 -- 94
2021-02-15 03:00:00 2.6 9 Sudeste -- -- 0 936 -- 93
2021-02-15 02:00:00 4.1 6 Sudeste 9 Sudeste 0 936.2 -- 92
2021-02-15 01:00:00 5 9 Sudeste 11 Sudeste 0 936.2 -- 90
2021-02-15 00:00:00 5.2 0 Calma 5 Este 0 936.1 -- 85
2021-02-14 23:00:00 6.3 0 Calma 15 Sur 0 935.9 -- 82
2021-02-14 22:00:00 7.9 6 Sur 21 Sur 0 935.7 -- 78
2021-02-14 21:00:00 8.5 10 Sur 15 Sur 0 935.3 -- 75
2021-02-14 20:00:00 9.7 9 Sudoeste 13 Sudoeste 0 935.3 -- 71
2021-02-14 19:00:00 11.5 14 Sudoeste 21 Sudoeste 0 934.8 0.6 65
2021-02-14 18:00:00 15.3 15 Sudoeste 24 Sudoeste 0 934.3 -0.1 54
2021-02-14 17:00:00 17.4 12 Sudoeste 21 Sudoeste 0 934.3 -- 47
2021-02-14 16:00:00 18.3 15 Sudoeste 32 Sudoeste 0 934.2 -- 42
2021-02-14 15:00:00 17.6 17 Sudoeste 26 Sudoeste 0 934.4 -- 43
2021-02-14 14:00:00 15.9 11 Sur 22 Sur 0 934.7 -- 54
2021-02-14 13:00:00 14.5 13 Sur 22 Sur 0 935.3 -- 59
2021-02-14 12:00:00 12.2 9 Sudeste 13 Sudeste 0 935.6 -- 69
2021-02-14 11:00:00 9.3 3 Sudeste 15 Sudeste 0 935.6 -- 75
2021-02-14 10:00:00 4.8 8 Este 11 Sudeste 0 935.4 -- 93
2021-02-14 09:00:00 -- -- -- -- -- 0 935.1 -- --
2021-02-14 08:00:00 0.1 5 Sudeste 8 Este 0 934.8 -- 98
2021-02-14 07:00:00 0 5 Sur 9 Sudeste 0 934.5 -- 98
2021-02-14 06:00:00 0.7 0 Calma -- -- 0 934.5 -- 98
2021-02-14 05:00:00 1.4 0 Calma -- -- 0 934.4 -- 98
2021-02-14 04:00:00 1.7 5 Este 9 Sudeste 0 934.5 -- 97
2021-02-14 03:00:00 2.3 0 Calma 8 Este 0 934.8 -- 98
2021-02-14 02:00:00 2.8 0 Calma 5 Este 0 934.9 -- 97
2021-02-14 01:00:00 3.3 2 Este 9 Este 0 934.9 -- 98
2021-02-14 00:00:00 3.5 7 Este 9 Este 0 934.8 -- 94
2021-02-13 23:00:00 4.4 5 Sudeste 8 Sudeste 0 934.9 -- 94
2021-02-13 22:00:00 5.5 0 Calma -- -- 0 935.1 -- 93
2021-02-13 21:00:00 7.3 0 Calma 9 Sudoeste 0 935.1 -- 90
2021-02-13 20:00:00 9.5 9 Sur 9 Sur 0 935 -- 80
2021-02-13 19:00:00 11.3 5 Oeste 13 Oeste 0 934.6 -- 76
2021-02-13 18:00:00 12.3 12 Oeste 26 Noroeste 0 934.4 -- 70
2021-02-13 17:00:00 13.7 18 Oeste 26 Noroeste 0 933.8 -- 64
2021-02-13 16:00:00 13.6 17 Oeste 28 Oeste 0 933.6 -- 62
2021-02-13 15:00:00 14.1 13 Oeste 21 Oeste 0 933.8 -- 53
2021-02-13 14:00:00 12.8 13 Noroeste 33 Oeste 0 934.4 -- 53
2021-02-13 13:00:00 12.2 16 Oeste 22 Oeste 0 934.7 -- 53
2021-02-13 08:00:00 1.1 6 Norte 9 Norte 0 933 0.1 97
2021-02-13 07:00:00 1.4 0 Calma 5 Sur 0 932.8 0.2 97
2021-02-13 06:00:00 1.5 0 Calma 5 Oeste 0 932.9 0.4 97
2021-02-13 05:00:00 1.9 0 Calma 8 Sudoeste 0 932.9 0 97
2021-02-13 04:00:00 2.9 8 Sur 13 Sur 0 932.6 -0.5 95
2021-02-13 03:00:00 3.8 7 Sur 9 Sur 0 932.5 -0.4 95
2021-02-13 02:00:00 3.7 0 Calma -- -- -- 932.9 0.2 93
2021-02-13 01:00:00 3.2 8 Sudoeste 15 Sur 0 933.1 0.7 90
2021-02-13 00:00:00 4.5 12 Sur -- -- 0 932.9 0.7 86
2021-02-12 23:00:00 4.8 12 Sudoeste 17 Sudoeste 0 932.7 0.7 89
2021-02-12 22:00:00 4.7 10 Sur 13 Sudeste 0 932.4 1 89
2021-02-12 21:00:00 5.4 9 Oeste 11 Oeste 0 932.2 1.1 89
2021-02-12 20:00:00 6.2 6 Sur 13 Oeste 0 932 1.2 84
2021-02-12 19:00:00 8.3 10 Oeste 24 Noroeste 0 931.4 0.7 76
2021-02-12 18:00:00 11.5 20 Oeste 32 Noroeste 0 931.1 0.6 63
2021-02-12 17:00:00 12.1 22 Oeste 35 Noroeste 0 930.8 0.4 61
2021-02-12 16:00:00 12.6 24 Oeste 41 Noroeste 0 930.7 0.2 61
2021-02-12 15:00:00 12.5 28 Noroeste 42 Oeste 0 930.5 0.4 63
2021-02-12 14:00:00 12.1 31 Oeste 41 Oeste 0 930.4 0.8 66
2021-02-12 13:00:00 10 25 Oeste 46 Oeste 0 930.5 2 75
2021-02-12 12:00:00 9.8 28 Oeste 41 Oeste 0 930.1 2.1 79
2021-02-12 11:00:00 9 31 Oeste 46 Oeste 0 929.6 2.4 83
2021-02-12 10:00:00 8.1 25 Oeste 35 Oeste 0 928.5 1.8 88
2021-02-12 09:00:00 6.8 20 Oeste 32 Oeste 0 928 -- 91
2021-02-12 08:00:00 7.3 23 Oeste 33 Oeste 0 927.2 -- 91
2021-02-12 07:00:00 7.3 21 Oeste 37 Oeste 0 926.7 -- 90
2021-02-12 06:00:00 8.1 21 Oeste 42 Oeste 0 925.9 -- 88
2021-02-12 05:00:00 9.1 28 Oeste 42 Oeste 0.1 925.7 -- 90
2021-02-12 04:00:00 9.7 26 Oeste 37 Oeste 0 925.3 -- 89
2021-02-12 03:00:00 9.2 18 Sudoeste 26 Oeste 1.1 925 -- 94
2021-02-12 02:00:00 9.7 23 Oeste -- -- -- 925.1 -- 92
2021-02-12 01:00:00 10.8 22 Sudoeste 42 Sur 0 924.6 -- 86
2021-02-12 00:00:00 10.4 26 Sudoeste 39 Sudoeste 0 924.7 -- 88
2021-02-11 23:00:00 10.2 27 Sudoeste 42 Sudoeste 0 925 -- 86
2021-02-11 22:00:00 10.3 28 Sudoeste 52 Sudoeste 0 925.5 -- 86
2021-02-11 21:00:00 10.5 31 Sudoeste 48 Sudoeste 0 925.4 -- 86
2021-02-11 20:00:00 10.3 19 Sur 35 Sudoeste 0 925.8 -- 86
2021-02-11 19:00:00 11.2 26 Sudoeste 41 Sudoeste 0 925.7 -- 82
2021-02-11 18:00:00 12.6 27 Sudoeste 41 Sudoeste 0 925.9 -- 77
2021-02-11 17:00:00 14.2 28 Sudoeste 42 Sudoeste 0 926.1 -- 71
2021-02-11 16:00:00 13.8 32 Sudoeste 45 Sudoeste 0 926.1 -- 73
2021-02-11 15:00:00 15.1 32 Sudoeste 46 Sudoeste 0 926.3 -- 69
2021-02-11 14:00:00 14.5 31 Sudoeste 42 Sudoeste 0 926.8 -- 71
2021-02-11 13:00:00 14.2 28 Sudoeste 37 Sudoeste 0 927 -- 74
2021-02-11 12:00:00 12.8 18 Sudoeste 30 Sudoeste 0 927.2 -- 81
2021-02-11 11:00:00 12.3 19 Sudoeste 28 Sudoeste 0 927.1 -- 83
2021-02-11 10:00:00 10.7 10 Sudoeste 15 Sudoeste 0 926.8 -- 91
2021-02-11 09:00:00 9.3 10 Sudoeste 15 Sudoeste 0 926.3 -- 95
2021-02-11 08:00:00 8 0 Calma 9 Sudoeste 0 926 -- 94
2021-02-11 07:00:00 8.1 8 Sudoeste 17 Sudoeste 0 925.9 -- 94
2021-02-11 06:00:00 8.6 10 Oeste 13 Oeste 0 926 -- 94
2021-02-11 05:00:00 8 5 Sudoeste 9 Sudoeste 0 925.7 -- 93
2021-02-11 04:00:00 7.5 0 Calma 21 Sudoeste 0 926 -- 93
2021-02-11 03:00:00 7.1 13 Sur 15 Sudoeste 0 926.1 -- 93
2021-02-11 02:00:00 7.8 8 Sudoeste -- -- -- 926.1 -- 95
2021-02-11 01:00:00 8.1 8 Oeste 22 Oeste 0 925.9 -- 94
2021-02-11 00:00:00 8.2 7 Oeste 17 Sudoeste 0 925.7 -- 85
2021-02-10 23:00:00 8.2 9 Sudoeste 13 Sudoeste 0 925.1 -- 84
2021-02-10 22:00:00 7.9 5 Sudoeste 13 Sudoeste 0 924.8 -- 82
2021-02-10 21:00:00 7.6 13 Sudoeste 15 Sudoeste 0 924.4 -- 84
2021-02-10 20:00:00 7.4 12 Sudoeste 17 Sudoeste 0 923.9 -- 78
2021-02-10 19:00:00 8.9 10 Oeste 13 Oeste 0 923.3 -- 67
2021-02-10 18:00:00 9.8 9 Oeste 32 Oeste 0 922.9 -- 67
2021-02-10 17:00:00 11.9 21 Oeste 33 Oeste 0 922.4 -- 51
2021-02-10 16:00:00 11.9 23 Oeste 37 Oeste 0 922.2 -- 51
2021-02-10 15:00:00 11.5 24 Oeste 37 Oeste 0 922 -- 54
2021-02-10 14:00:00 10.8 27 Oeste 46 Oeste 0 921.7 -- 60
2021-02-10 13:00:00 9.6 30 Oeste 42 Oeste 0 921.4 -- 66
2021-02-10 12:00:00 8.7 24 Oeste 39 Oeste 0 921 -- 71
2021-02-10 11:00:00 7.3 24 Oeste 41 Oeste 0 920 -- 81
2021-02-10 10:00:00 6.1 24 Oeste 41 Oeste 0 919.3 -- 84
2021-02-10 09:00:00 5.6 21 Oeste 41 Oeste 0 918.1 -- 89
2021-02-10 08:00:00 5.4 26 Oeste 41 Oeste 0 916.6 -- 90
2021-02-10 07:00:00 5.4 23 Oeste 42 Oeste 0 915.2 -- 91
2021-02-10 06:00:00 5.3 34 Oeste 46 Oeste 0 914.2 -- 89
2021-02-10 05:00:00 5 24 Noroeste 65 Oeste 2 913.3 -- 92
2021-02-10 04:00:00 6.1 36 Oeste 55 Oeste 0.3 912.2 -- 90
2021-02-10 03:00:00 6 48 Oeste 74 Sudoeste 1.8 911.5 -- 89
2021-02-10 02:00:00 6.4 44 Oeste -- -- -- 910.7 -- 88
2021-02-10 01:00:00 5.3 21 Sudoeste 41 Sudoeste 0.9 911.4 -- 92
2021-02-10 00:00:00 5.5 25 Oeste 54 Oeste 0 911.8 -- 87
2021-02-09 23:00:00 5.4 32 Oeste 58 Oeste 1.2 912.4 -- 88
2021-02-09 22:00:00 5.8 27 Oeste 50 Oeste 0.6 911.9 -- 89
2021-02-09 21:00:00 5.7 29 Sudoeste 54 Oeste 0 911.3 -- 86
2021-02-09 20:00:00 5.3 37 Oeste 59 Oeste 0 911.4 -- 86
2021-02-09 19:00:00 5.3 31 Oeste 59 Oeste 0.8 910.9 -- 89
2021-02-09 18:00:00 5.6 51 Oeste 67 Oeste 1.5 910.7 -- 86
2021-02-09 17:00:00 7.4 25 Sudoeste 37 Sudoeste 0 909.7 -- 82
2021-02-09 16:00:00 6.4 24 Oeste 42 Oeste 0 910.3 -- 85
2021-02-09 15:00:00 4.9 18 Sudoeste 32 Sudoeste 0 911.1 -- 91
2021-02-09 14:00:00 3.2 15 Sudoeste 46 Noroeste 1.7 910.8 -- 93
2021-02-09 13:00:00 4.1 35 Oeste 76 Oeste 4.6 911.4 -- 91
2021-02-09 12:00:00 7.8 36 Sudoeste 59 Sudoeste 0.8 909.2 -- 89
2021-02-09 11:00:00 7.7 37 Sudoeste 67 Sudoeste 0.2 909.1 -- 88
2021-02-09 10:00:00 7.3 38 Sudoeste 55 Sudoeste 0.7 909.9 -- 89
2021-02-09 09:00:00 7.2 37 Sudoeste 54 Sudoeste 0.5 910.6 -- 89
2021-02-09 08:00:00 6.9 35 Sudoeste 58 Sudoeste 0.6 911.1 -- 90
2021-02-09 07:00:00 6.8 31 Sudoeste 41 Sudoeste 0.2 911.9 -- 91
2021-02-09 06:00:00 6.6 34 Sudoeste 48 Sudoeste 0 912.7 -- 89
2021-02-09 05:00:00 6.5 34 Sudoeste 48 Sudoeste 0.2 913.4 -- 89
2021-02-09 04:00:00 5.9 26 Sudoeste 42 Sudoeste 0.4 914.3 -- 92
2021-02-09 03:00:00 5.4 27 Sudoeste 37 Sudoeste 0 914.8 -- 91
2021-02-09 02:00:00 5 25 Sudoeste -- -- -- 915.8 -- 88
2021-02-09 01:00:00 5.4 21 Sudoeste 46 Oeste 0 916.1 -- 89
2021-02-09 00:00:00 5.7 23 Sudoeste 41 Oeste 0 916.4 -- 86
2021-02-08 23:00:00 5.8 25 Oeste 41 Sudoeste 0 916.3 -- 90
2021-02-08 22:00:00 6 30 Sudoeste 41 Sudoeste 0 915.7 -- 90
2021-02-08 21:00:00 6.2 26 Oeste 42 Oeste 0 915.7 -- 92
2021-02-08 20:00:00 6.6 28 Oeste 48 Oeste 0 915.2 -- 89
2021-02-08 19:00:00 6.7 29 Oeste 54 Oeste 0 914.3 -- 87
2021-02-08 18:00:00 7.1 34 Oeste 54 Oeste 0.8 913.5 -- 86
2021-02-08 17:00:00 6.9 32 Oeste 55 Oeste 1.4 912.9 -- 88
2021-02-08 16:00:00 6.9 38 Oeste 61 Oeste 0.4 912.2 -- 86
2021-02-08 15:00:00 6.9 35 Oeste 61 Oeste 0.1 911.8 -- 84
2021-02-08 14:00:00 8.2 41 Oeste 61 Oeste 0.1 912.3 -- 76
2021-02-08 13:00:00 6.9 32 Oeste 48 Sudoeste 0 912.9 -- 80
2021-02-08 12:00:00 6.8 32 Oeste 54 Oeste 0 913 -- 83
2021-02-08 11:00:00 6.3 36 Oeste 55 Oeste 0.1 912.6 -- 86
2021-02-08 10:00:00 5.5 35 Oeste 48 Oeste 0 912.3 -- 89
2021-02-08 09:00:00 5.1 27 Oeste 45 Oeste 0 911.6 -- 91
2021-02-08 08:00:00 4.9 20 Oeste 37 Oeste 0 911.2 -- 91
2021-02-08 07:00:00 4.8 24 Oeste 39 Oeste 0 911 -- 90
2021-02-08 06:00:00 5.4 23 Oeste 42 Oeste 0.5 910.6 -- 89
2021-02-08 05:00:00 6.1 26 Oeste 37 Oeste 0 910.3 -- 92
2021-02-08 04:00:00 6.7 22 Oeste 50 Sudoeste 0.4 910.5 -- 91
2021-02-08 03:00:00 6.9 39 Sudoeste 55 Sudoeste 1.6 910.9 -- 91
2021-02-08 02:00:00 6.2 21 Sudoeste -- -- -- 911.4 -- 92
2021-02-08 01:00:00 6 28 Sudoeste 48 Sudoeste 3.5 912.6 -- 92
2021-02-08 00:00:00 6 36 Sudoeste 52 Sudoeste 0 912.8 -- 89
2021-02-07 23:00:00 5.4 32 Sudoeste 46 Sudoeste 0 913.4 -- 90
2021-02-07 22:00:00 5 27 Sudoeste 42 Sudoeste 0 914.3 -- 91
2021-02-07 21:00:00 4.4 23 Sudoeste 35 Sudoeste 0 915.3 -- 91
2021-02-07 20:00:00 4.7 14 Sudoeste 21 Sudoeste 0 915.8 -- 91
2021-02-07 19:00:00 4.5 18 Oeste 32 Oeste 0 916.4 -- 90
2021-02-07 18:00:00 4.1 26 Oeste 35 Oeste 0.4 916.5 -- 91
2021-02-07 17:00:00 4.4 25 Oeste 39 Oeste 0.6 916.9 -- 87
2021-02-07 16:00:00 4.7 27 Oeste 41 Oeste 0.5 916.7 -- 81
2021-02-07 15:00:00 5.7 29 Oeste 39 Oeste 0.1 916.8 -- 79
2021-02-07 14:00:00 6.9 23 Oeste 33 Oeste 0 917 -- 69
2021-02-07 13:00:00 6.6 22 Oeste 32 Oeste 0 917.6 -- 78
2021-02-07 12:00:00 7.2 18 Oeste 26 Sudoeste 0 917.7 -- 77
2021-02-07 11:00:00 6.2 12 Sur 18 Sur 0 917.3 -- 79
2021-02-07 10:00:00 3.9 0 Calma 8 Noroeste 0 917.4 -- 93
2021-02-07 09:00:00 2.2 0 Calma -- -- 0 917.1 -- 97
2021-02-07 08:00:00 3.2 0 Calma 5 Norte 0 916.9 -- 94
2021-02-07 07:00:00 3.5 4 Este 9 Este 0 916.8 -- 91
2021-02-07 06:00:00 3.9 5 Nordeste 9 Este 0 916.7 -- 92
2021-02-07 05:00:00 3.8 9 Este 13 Nordeste 0 916.7 -- 91
2021-02-07 04:00:00 4.4 6 Este 9 Sudeste 0 916.9 -- 89
2021-02-07 03:00:00 4.7 0 Calma 9 Este 0 917 -- 88
2021-02-07 02:00:00 4.7 8 Este -- -- -- 917 -- 87
2021-02-07 01:00:00 5 10 Este 17 Este 0 917 -- 84
2021-02-07 00:00:00 5.2 9 Nordeste 13 Nordeste 0 917 -- 88
2021-02-06 23:00:00 5.3 7 Nordeste 15 Nordeste 0 916.7 -- 87
2021-02-06 22:00:00 5.6 10 Nordeste 17 Nordeste 0 916.2 -- 87
2021-02-06 21:00:00 5.6 8 Nordeste 21 Este 0 915.5 -- 89
2021-02-06 20:00:00 5.8 15 Este 30 Este 0 914.9 -- 85
2021-02-06 19:00:00 6.1 18 Este 35 Nordeste 0 914.4 -- 84
2021-02-06 18:00:00 6.4 22 Nordeste 45 Nordeste 0 913.6 -- 84
2021-02-06 17:00:00 6.9 30 Nordeste 45 Nordeste 0 912.9 -- 88
2021-02-06 16:00:00 7.6 28 Nordeste 39 Nordeste 0 912 -- 89
2021-02-06 15:00:00 8 22 Norte 30 Norte 0 911.5 -- 89
2021-02-06 14:00:00 8.1 21 Norte 28 Norte 0 911.5 -- 89
2021-02-06 13:00:00 9.7 6 Este 11 Nordeste 0 911.7 -- 80
2021-02-06 12:00:00 7.9 4 Noroeste 9 Este 0 911.5 -- 90
2021-02-06 11:00:00 7.4 3 Nordeste 8 Nordeste 0 911.3 -- 94
2021-02-06 10:00:00 6.4 0 Calma 8 Este 0.1 910.8 -- 97
2021-02-06 09:00:00 6.2 0 Calma -- -- 0.6 910.5 -- 98
2021-02-06 08:00:00 5.9 0 Calma 9 Este 0.9 910 -- 99
2021-02-06 07:00:00 5.9 0 Calma 2 Este 0.6 909.5 -- 98
2021-02-06 06:00:00 5.9 0 Calma 8 Sur 1.8 909.3 -- 98
2021-02-06 05:00:00 6 5 Sudeste 8 Sur 1.1 909.3 -- 98
2021-02-06 04:00:00 5.9 6 Este 8 Este 0 909.5 -- 98
2021-02-06 03:00:00 5.6 5 Sur 13 Oeste 0 909.6 -- 98
2021-02-06 02:00:00 6 8 Sudoeste 11 Sudoeste 0 909.8 -- 98
2021-02-06 01:00:00 5.8 10 Sudoeste 11 Sudoeste 0 910.1 -- 97
2021-02-06 00:00:00 7.1 0 Calma 9 Noroeste 0 910.4 -- 97
2021-02-05 23:00:00 7.9 7 Oeste 21 Sudoeste 0.2 910.4 -- 97
2021-02-05 22:00:00 6.8 15 Sudoeste 18 Oeste 0 910.4 -- 98
2021-02-05 21:00:00 6.6 6 Noroeste 13 Norte 0 910 -- 97
2021-02-05 20:00:00 7.8 9 Norte 22 Norte 0 910.4 -- 96
2021-02-05 19:00:00 8.8 13 Noroeste 22 Noroeste 0 910.7 -- 95
2021-02-05 18:00:00 9.4 0 Calma 32 Oeste 5.9 910.4 -- 95
2021-02-05 17:00:00 10.7 19 Nordeste 26 Nordeste 0 910.6 -- 90
2021-02-05 16:00:00 11.5 16 Nordeste 26 Este 0 911.2 -- 83
2021-02-05 15:00:00 12 8 Nordeste 17 Este 0 912 -- 79
2021-02-05 14:00:00 10.9 0 Calma 11 Norte 0 913.2 -- 83
2021-02-05 13:00:00 10.4 7 Norte 13 Norte 0 913.7 -- 83
2021-02-05 12:00:00 9.9 0 Calma 21 Sur 0 914.6 -- 85
2021-02-05 11:00:00 9.6 17 Sur 32 Sur 0 914.5 -- 83
2021-02-05 10:00:00 7.9 23 Sur 41 Sur 1.1 915.5 -- 90
2021-02-05 09:00:00 7.5 17 Sudoeste 35 Sudoeste 0.2 915.8 -- 92
2021-02-05 08:00:00 6.3 0 Calma 8 Norte 0.2 915.3 -- 95
2021-02-05 07:00:00 6.9 0 Calma 18 Norte 0 914.9 -- 91
2021-02-05 06:00:00 5.8 9 Este 22 Este 0 914.8 -- 97
2021-02-05 05:00:00 5.4 13 Este 26 Este 0 916.1 -- 97
2021-02-05 04:00:00 5.2 12 Nordeste 22 Nordeste 0.7 917.1 -- 97
2021-02-05 03:00:00 5.3 12 Nordeste 21 Nordeste 0.3 917.4 -- 97
2021-02-05 02:00:00 5.4 8 Nordeste 17 Nordeste 0.4 917.3 -- 97
2021-02-05 01:00:00 5.5 9 Este 21 Este 0.2 917.5 -- 96
2021-02-05 00:00:00 5.4 11 Este 17 Este 0 917.7 -- 96
2021-02-04 23:00:00 5.8 9 Nordeste 13 Nordeste 0.1 917.7 -- 96
2021-02-04 22:00:00 5.8 8 Nordeste 22 Sudeste 1.8 918.2 -- 97
2021-02-04 21:00:00 5.9 18 Este 30 Este 0 917.4 -- 94
2021-02-04 20:00:00 5.6 14 Este 24 Este 0.2 917.6 -- 95
2021-02-04 19:00:00 5.8 13 Este 18 Este 0.5 918.1 -- 94
2021-02-04 18:00:00 6 8 Este 15 Este 0.3 918.5 -- 93
2021-02-04 17:00:00 6.2 6 Nordeste 18 Este 0.9 918.2 -- 92
2021-02-04 16:00:00 6.4 14 Este 18 Nordeste 0.1 917.6 -- 90
2021-02-04 15:00:00 6.1 12 Norte 22 Norte 0.9 918.2 -- 92
2021-02-04 14:00:00 6.1 18 Norte 28 Norte 1.1 918.7 -- 93
2021-02-04 13:00:00 6.2 18 Norte 26 Norte 1.6 918.9 -- 93
2021-02-04 12:00:00 6.8 13 Norte 28 Noroeste 3.4 919.3 -- 96
2021-02-04 11:00:00 7.5 14 Noroeste 18 Noroeste 2.2 918.9 -- 98
2021-02-04 10:00:00 7.5 6 Este 15 Este 0.3 918.4 -- 94
2021-02-04 09:00:00 7.1 6 Este 11 Este 0.6 918.7 -- 96
2021-02-04 08:00:00 7.2 6 Este 9 Sudeste 0.3 919 -- 95
2021-02-04 07:00:00 7.5 0 Calma -- -- 0 919.1 -- 93
2021-02-04 06:00:00 7.6 0 Calma 9 Este 0 919.2 -- 93
2021-02-04 05:00:00 7.8 2 Sudoeste 15 Sur 0 919.4 -- 91
2021-02-04 04:00:00 8 11 Sur 22 Sudoeste 0 919.7 -- 89
2021-02-04 03:00:00 8.3 18 Sudoeste 24 Sur 0 920.1 -- 90
2021-02-04 02:00:00 8.3 18 Sur 28 Sudoeste 0 920 -- 91
2021-02-04 01:00:00 8 18 Sudoeste 26 Sur 0 920.4 -- 92
2021-02-04 00:00:00 8.3 16 Sudoeste 24 Sudoeste 0 920.6 -- 92
2021-02-03 23:00:00 8.4 9 Sur 22 Oeste 0 920.8 -- 94
2021-02-03 22:00:00 8.8 14 Sudoeste 28 Sudoeste 0.2 920.6 -- 95
2021-02-03 21:00:00 9.1 14 Sudoeste 21 Sudoeste 0.4 920.6 -- 95
2021-02-03 20:00:00 9.2 13 Sudoeste 22 Sudoeste 1.1 920.3 -- 96
2021-02-03 19:00:00 9.4 13 Sudoeste 30 Oeste 0.3 920.4 -- 94
2021-02-03 18:00:00 10.2 18 Sudoeste 28 Oeste 1.2 919.9 -- 92
2021-02-03 17:00:00 10.3 12 Oeste 22 Oeste 1.7 920.2 -- 94
2021-02-03 16:00:00 10.4 14 Oeste 41 Sudoeste 0.3 920.4 -- 92
2021-02-03 15:00:00 12 31 Sudoeste 41 Sudoeste 0.2 920.8 -- 81
2021-02-03 14:00:00 10.8 21 Sudoeste 41 Sudoeste 0.3 921.3 -- 85
2021-02-03 13:00:00 12.4 27 Sudoeste 45 Sudoeste 0 921.6 -- 71
2021-02-03 12:00:00 12.1 27 Sudoeste 39 Sudoeste 0 922.2 -- 72
2021-02-03 11:00:00 11.1 19 Sudoeste 37 Sudoeste 0 922.2 -- 76
2021-02-03 10:00:00 10.2 23 Sudoeste 35 Sudoeste 0 921.8 -- 79
2021-02-03 09:00:00 8.8 24 Sudoeste 39 Sudoeste 0 921.2 -- 82
2021-02-03 08:00:00 9 31 Sudoeste 50 Sudoeste 0 920.5 -- 81
2021-02-03 07:00:00 8.7 26 Sudoeste 42 Sudoeste 0 920 -- 83
2021-02-03 06:00:00 8.5 24 Sudoeste 45 Sudoeste 0 920.2 -- 85
2021-02-03 05:00:00 8.8 26 Sudoeste 48 Sudoeste 0 920.4 -- 83
2021-02-03 04:00:00 8.8 36 Sudoeste 58 Sudoeste 0 920.8 -- 84
2021-02-03 03:00:00 8.8 41 Sudoeste 58 Sudoeste 0 921 -- 83
2021-02-03 02:00:00 8.9 41 Sudoeste 61 Sudoeste 0 921.3 -- 84
2021-02-03 01:00:00 8.7 45 Sudoeste 65 Sudoeste 0 921.4 -- 85
2021-02-03 00:00:00 8.7 46 Sudoeste 67 Sudoeste 0 921 -- 83
2021-02-02 23:00:00 9 24 Sudoeste 41 Sudoeste 0 922.1 -- 80
2021-02-02 22:00:00 9.5 27 Sudoeste 37 Sudoeste 0 922.7 -- 79
2021-02-02 21:00:00 9.3 28 Sudoeste 39 Sudoeste 0 923 -- 80
2021-02-02 20:00:00 9.1 26 Sudoeste 41 Sudoeste 0 923.4 -- 80
2021-02-02 19:00:00 9.8 28 Sudoeste 42 Sudoeste 0 923.4 -- 78
2021-02-02 18:00:00 10.2 32 Sudoeste 48 Sudoeste 0 923.1 -- 77
2021-02-02 17:00:00 10.8 33 Sudoeste 50 Sudoeste 0 922.9 -- 76
2021-02-02 16:00:00 13.1 33 Sudoeste 46 Sudoeste 0 923.6 -- 66
2021-02-02 15:00:00 13.6 37 Sudoeste 48 Sudoeste 0 924.3 -- 65
2021-02-02 14:00:00 13 35 Sudoeste 46 Sudoeste 0 925 -- 68
2021-02-02 13:00:00 13.5 39 Sudoeste 55 Sudoeste 0 925.5 -- 66
2021-02-02 12:00:00 13.1 34 Sudoeste 48 Sudoeste 0 926 -- 72
2021-02-02 11:00:00 11.3 17 Oeste 30 Sudoeste 0 926.1 -- 82
2021-02-02 10:00:00 10 10 Sudoeste 17 Oeste 0 926.3 -- 88
2021-02-02 09:00:00 9.2 13 Oeste 21 Oeste 0 926 -- 90
2021-02-02 08:00:00 9.4 15 Oeste 33 Oeste 0 925.7 -- 88
2021-02-02 07:00:00 9.1 13 Sudoeste 18 Sudoeste 0 925.7 -- 92
2021-02-02 06:00:00 7.5 9 Sudoeste 17 Sudoeste 0 926 -- 92
2021-02-02 05:00:00 9.5 13 Sudoeste 24 Sudoeste 0 926.2 -- 90
2021-02-02 04:00:00 9.6 16 Sudoeste 26 Sudoeste 0 926.4 -- 90
2021-02-02 03:00:00 9.5 18 Sudoeste 30 Sudoeste 0 926.7 -- 90
2021-02-02 02:00:00 9.4 22 Sudoeste 35 Sudoeste 0 926.6 -- 89
2021-02-02 01:00:00 10.2 21 Sudoeste 33 Sudoeste 0 926.8 -- 86
2021-02-02 00:00:00 10.2 23 Sudoeste 32 Sudoeste 0 926.6 -- 87
2021-02-01 23:00:00 9.7 8 Sudoeste 21 Sudoeste 0 927.1 -- 90
2021-02-01 22:00:00 10.3 16 Sudoeste 24 Sudoeste 0 927 -- 87
2021-02-01 21:00:00 10.3 14 Sudoeste 21 Oeste 0 926.8 -- 84
2021-02-01 20:00:00 9.6 13 Sudoeste 18 Sudoeste 0 926.8 -- 81
2021-02-01 19:00:00 10.8 12 Oeste 32 Oeste 0 926.4 -- 73
2021-02-01 18:00:00 11.8 27 Oeste 41 Oeste 0 926.3 -- 67
2021-02-01 17:00:00 13 27 Oeste 52 Oeste 0 926.4 -- 64
2021-02-01 16:00:00 13.5 33 Oeste 50 Oeste 0 926.1 -- 64
2021-02-01 15:00:00 12.6 37 Oeste 54 Oeste 0 926.4 -- 65
2021-02-01 14:00:00 12.5 37 Oeste 50 Oeste 0 926.5 -- 67
2021-02-01 13:00:00 11.1 34 Oeste 46 Oeste 0 927 -- 75
2021-02-01 12:00:00 10.4 28 Oeste 39 Oeste 0 926.8 -- 80
2021-02-01 11:00:00 9.4 24 Oeste 39 Oeste 0 926.3 -- 82
2021-02-01 10:00:00 8.7 29 Oeste 39 Oeste 0 925.9 -- 84
2021-02-01 09:00:00 7.8 23 Oeste 37 Sudoeste 0 925.7 -- 86
2021-02-01 08:00:00 7.4 23 Sudoeste 37 Oeste 0 924.8 -- 87
2021-02-01 07:00:00 7.3 30 Oeste 45 Oeste 0 924.3 -- 86
2021-02-01 06:00:00 7.2 30 Oeste 42 Oeste 0 924.3 -- 88
2021-02-01 05:00:00 7.3 23 Oeste 39 Oeste 0 924 -- 87
2021-02-01 04:00:00 7.5 22 Oeste 41 Oeste 0 923.9 -- 87
2021-02-01 03:00:00 7.8 28 Oeste 45 Oeste 0 923.7 -- 84
2021-02-01 02:00:00 8.4 32 Oeste 54 Oeste 0 923.3 -- 87
2021-02-01 01:00:00 8.9 31 Oeste 50 Oeste 0 923.3 -- 89
2021-02-01 00:00:00 9.2 35 Oeste 50 Oeste 0 923.2 -- 86
2021-01-31 23:00:00 9.7 39 Oeste 63 Oeste 0 922.7 -- 86
2021-01-31 22:00:00 9.7 37 Oeste 54 Oeste 0 922.1 -- 87
2021-01-31 21:00:00 10.5 44 Oeste 58 Oeste 0 921.9 -- 85
2021-01-31 20:00:00 10.4 29 Oeste 54 Oeste 0 922.1 -- 80
2021-01-31 19:00:00 11.2 38 Oeste 59 Oeste 0 922 -- 76
2021-01-31 18:00:00 13.2 45 Oeste 65 Oeste 0 921.3 -- 75
2021-01-31 17:00:00 13.9 39 Oeste 55 Oeste 0 921.7 -- 82
2021-01-31 16:00:00 13.6 40 Oeste 59 Oeste 0 921.5 -- 84
2021-01-31 15:00:00 12.5 33 Oeste 52 Oeste 0 921.9 -- 89
2021-01-31 14:00:00 11.7 36 Oeste 52 Oeste 0 922.6 -- 92
2021-01-31 13:00:00 10.4 28 Oeste 45 Oeste 0 923.3 -- 96
2021-01-31 12:00:00 9.5 30 Oeste 45 Oeste 0.6 923.5 -- 96
2021-01-31 11:00:00 8.5 29 Sudoeste 39 Sudoeste 0 923.8 -- 95
2021-01-31 10:00:00 8 26 Oeste 39 Oeste 0 923.8 -- 92
2021-01-31 09:00:00 7.2 20 Oeste 37 Oeste 0 924 -- 95
2021-01-31 08:00:00 6.8 27 Oeste 39 Oeste 0 923.6 -- 94
2021-01-31 07:00:00 6.7 21 Oeste 37 Oeste 0 923.6 -- 88
2021-01-31 06:00:00 6.6 26 Oeste 39 Oeste 0 923.9 -- 86
2021-01-31 05:00:00 6.2 20 Oeste 35 Oeste 0 923.2 -- 87
2021-01-31 04:00:00 5.8 26 Oeste 55 Oeste 0 923.5 -- 85
2021-01-31 03:00:00 6 40 Oeste 54 Oeste 0 923.1 -- 81
2021-01-31 02:00:00 6.2 38 Oeste 54 Oeste 0 923.2 -- 80
2021-01-31 01:00:00 6.2 34 Oeste 50 Oeste 0 923.4 -- 82
2021-01-31 00:00:00 6 24 Oeste 50 Oeste 0 923.3 -- 89
2021-01-30 23:00:00 6.2 33 Oeste 52 Oeste 0 922.9 -- 91
2021-01-30 22:00:00 6.2 32 Oeste 48 Oeste 0 923.2 -- 90
2021-01-30 21:00:00 6.2 30 Oeste 54 Oeste 0.1 922.7 -- 88
2021-01-30 20:00:00 6.3 36 Oeste 58 Oeste 0.2 922.1 -- 87
2021-01-30 19:00:00 6.6 42 Oeste 61 Oeste 0.1 921.9 -- 86
2021-01-30 18:00:00 7.5 36 Oeste 63 Oeste 0 921.7 -- 77
2021-01-30 17:00:00 8.8 41 Oeste 61 Oeste 0 921 -- 67
2021-01-30 16:00:00 8.3 39 Oeste 67 Oeste 0 921.4 -- 75
2021-01-30 15:00:00 9 42 Oeste 61 Oeste 0 921.7 -- 63
2021-01-30 14:00:00 9.5 41 Oeste 67 Oeste 0 922.2 -- 64
2021-01-30 13:00:00 8.7 40 Oeste 65 Oeste 0 922.8 -- 76
2021-01-30 12:00:00 8.1 45 Oeste 67 Oeste 0 922.9 -- 73
2021-01-30 11:00:00 7.3 43 Oeste 65 Oeste 0 922.9 -- 85
2021-01-30 10:00:00 7.2 36 Oeste 54 Oeste 0 922.5 -- 86
2021-01-30 09:00:00 6.7 28 Oeste 52 Oeste 0 922.5 -- 88
2021-01-30 08:00:00 7.6 36 Oeste 54 Oeste 0 921.9 -- 86
2021-01-30 07:00:00 8.2 39 Oeste 55 Oeste 0.1 922.3 -- 88
2021-01-30 06:00:00 8 35 Oeste 50 Oeste 0.4 922.4 -- 94
2021-01-30 05:00:00 8.3 40 Oeste 65 Sudoeste 1.5 922 -- 84
2021-01-30 04:00:00 8.2 37 Oeste 48 Oeste 2.5 924.3 -- 90
2021-01-30 03:00:00 9.5 29 Sudoeste 41 Sudoeste 0 922.7 -- 85
2021-01-30 02:00:00 9.7 27 Sudoeste 41 Sudoeste 0 923.6 -- 84
2021-01-30 01:00:00 9.6 30 Sudoeste 45 Sudoeste 0 924.2 -- 86
2021-01-30 00:00:00 9.4 27 Sudoeste 39 Sudoeste 0 925.1 -- 90